Johan Ruud — LEDR — position and weather

sailwx.info

Track history (hours):
 
Tides and Currents Weather Stations Pressure Air Temp Water Temp Dewpoint Dewpoint Depression Visibility Wind Speed Wind Dir Waves Ship Positions

Oceanographic research ship Johan Ruud (Norway)

Detailed information on ship capabilities available from University of Delaware's Ocean Information Center.

Last reported at 2017-Sep-24 17:00 UTC. Time now 2017-Sep-24 17:25 UTC.
Position N 69°39' E 018°58'.

Length 30 m; draft 4.5 m.

Type: Fishing. MMSI: 257265000.

Date/timePositionNaut miles runAvg speedWind from/ knotsBaromVisibWave heightAir tempDewpointWater temp
2017-Sep-24 17:00N 69°39' E 018°58'0 0.0
2017-Sep-24 16:30N 69°39' E 018°58'0 0.0
2017-Sep-24 16:00N 69°39' E 018°58'0 0.0
2017-Sep-24 15:30N 69°39' E 018°58'0 0.0
2017-Sep-24 15:00N 69°39' E 018°58'0 0.0
2017-Sep-24 14:30N 69°39' E 018°58'0 0.0
2017-Sep-24 14:00N 69°39' E 018°58'0 0.0
2017-Sep-24 13:30N 69°39' E 018°58'0 0.0
2017-Sep-24 13:00N 69°39' E 018°58'0 0.0
2017-Sep-24 12:30N 69°39' E 018°58'0 0.0
2017-Sep-24 12:00N 69°39' E 018°58'0 0.0
2017-Sep-24 11:30N 69°39' E 018°58'0 0.0
2017-Sep-24 11:00N 69°39' E 018°58'0 0.0
2017-Sep-24 10:30N 69°39' E 018°58'0 0.0
2017-Sep-24 10:00N 69°39' E 018°58'0 0.0
2017-Sep-24 09:30N 69°39' E 018°58'0 0.0
2017-Sep-24 09:00N 69°39' E 018°58'0 0.0
2017-Sep-24 08:30N 69°39' E 018°58'0 0.0
2017-Sep-24 08:01N 69°39' E 018°58'0 0.0
2017-Sep-24 07:30N 69°39' E 018°58'0 0.0
2017-Sep-24 07:00N 69°39' E 018°58'0 0.0
2017-Sep-24 06:30N 69°39' E 018°58'0 0.0
2017-Sep-24 06:00N 69°39' E 018°58'0 0.0
2017-Sep-24 05:30N 69°39' E 018°58'0 0.0
2017-Sep-24 05:00N 69°39' E 018°58'0 0.0
2017-Sep-24 04:30N 69°39' E 018°58'0 0.0
2017-Sep-24 04:00N 69°39' E 018°58'0 0.0
2017-Sep-24 03:30N 69°39' E 018°58'0 0.0
2017-Sep-24 03:00N 69°39' E 018°58'0 0.0
2017-Sep-24 02:30N 69°39' E 018°58'0 0.0
2017-Sep-24 02:00N 69°39' E 018°58'0 0.0
2017-Sep-24 01:30N 69°39' E 018°58'0 0.0
2017-Sep-24 01:00N 69°39' E 018°58'0 0.0
2017-Sep-24 00:30N 69°39' E 018°58'0 0.0
2017-Sep-24 00:00N 69°39' E 018°58'0 0.0
2017-Sep-23 23:30N 69°39' E 018°58'0 0.0
2017-Sep-23 23:00N 69°39' E 018°58'0 0.0
2017-Sep-23 22:30N 69°39' E 018°58'0 0.0
2017-Sep-23 22:00N 69°39' E 018°58'0 0.0
2017-Sep-23 21:30N 69°39' E 018°58'0 0.0
2017-Sep-23 21:00N 69°39' E 018°58'0 0.0
2017-Sep-23 20:30N 69°39' E 018°58'0 0.0
2017-Sep-23 20:00N 69°39' E 018°58'35 0.8
2017-Sep-22 02:01N 69°60' E 020°21'5 9.2
2017-Sep-22 01:30N 70°01' E 020°34'4 9.0
2017-Sep-22 01:00N 70°03' E 020°47'4 8.2
2017-Sep-22 00:30N 70°05' E 020°57'5 9.4
2017-Sep-22 00:01N 70°09' E 021°02'5 9.0
2017-Sep-21 23:30N 70°13' E 021°08'5 9.3
2017-Sep-21 23:00N 70°16' E 021°18'5 9.4
2017-Sep-21 22:30N 70°20' E 021°28'5 9.6
2017-Sep-21 22:00N 70°23' E 021°38'5 9.3
2017-Sep-21 21:30N 70°25' E 021°51'5 9.5
2017-Sep-21 21:00N 70°26' E 022°05'5 9.2
2017-Sep-21 20:30N 70°27' E 022°18'510.0
2017-Sep-21 20:01N 70°29' E 022°32'510.4
2017-Sep-21 19:30N 70°30' E 022°47'5 9.7
2017-Sep-21 19:00N 70°32' E 023°01'5 9.3
2017-Sep-21 18:30N 70°35' E 023°11'5 9.3
2017-Sep-21 18:01N 70°39' E 023°20'5 9.2
2017-Sep-21 17:31N 70°42' E 023°28'5 8.9
2017-Sep-21 17:00N 70°45' E 023°38'4 8.4
2017-Sep-21 16:30N 70°48' E 023°48'5 9.1
2017-Sep-21 16:00N 70°51' E 023°58'4 8.8
2017-Sep-21 15:30N 70°54' E 024°08'4 8.6
2017-Sep-21 15:00N 70°57' E 024°17'4 8.6
2017-Sep-21 14:30N 70°60' E 024°27'4 7.7
2017-Sep-21 14:00N 71°01' E 024°38'4 8.0
2017-Sep-21 13:30N 71°00' E 024°50'4 8.3
2017-Sep-21 13:00N 70°60' E 025°03'4 9.0
2017-Sep-21 12:31N 70°59' E 025°16'4 7.8
2017-Sep-21 12:00N 70°58' E 025°27'3 6.1
2017-Sep-21 11:30N 70°56' E 025°34'5 9.0
2017-Sep-21 11:00N 70°56' E 025°48'4 8.7
2017-Sep-21 10:30N 70°58' E 026°01'4 8.7
2017-Sep-21 10:00N 71°00' E 026°12'4 8.5
2017-Sep-21 09:30N 71°02' E 026°23'4 8.3
2017-Sep-21 09:00N 71°04' E 026°34'4 8.1
2017-Sep-21 08:30N 71°06' E 026°45'0 0.5
2017-Sep-21 08:00N 71°06' E 026°45'2 3.7
2017-Sep-21 07:30N 71°08' E 026°45'2 3.5
2017-Sep-21 07:00N 71°10' E 026°44'2 3.5
2017-Sep-21 06:30N 71°12' E 026°46'1 1.2
2017-Sep-21 06:00N 71°12' E 026°47'2 3.3
2017-Sep-21 05:30N 71°14' E 026°47'1 1.7
2017-Sep-21 05:01N 71°14' E 026°49'4 7.8
2017-Sep-21 04:30N 71°14' E 027°02'1 2.3
2017-Sep-21 04:00N 71°13' E 027°02'1 1.7
2017-Sep-21 03:30N 71°12' E 027°01'2 3.9
2017-Sep-21 03:00N 71°10' E 027°01'2 3.2
2017-Sep-21 02:30N 71°09' E 027°01'1 1.3
2017-Sep-21 02:00N 71°08' E 027°02'2 3.7
2017-Sep-21 01:31N 71°06' E 027°01'2 3.8
2017-Sep-21 01:00N 71°05' E 027°05'5 9.6
2017-Sep-21 00:30N 71°00' E 027°11'4 8.5
2017-Sep-20 23:59N 70°57' E 027°20'0 0.8
2017-Sep-20 23:30N 70°57' E 027°21'0 0.0
2017-Sep-20 23:00N 70°57' E 027°21'0 0.0
2017-Sep-20 22:31N 70°57' E 027°21'0 0.0
2017-Sep-20 22:00N 70°57' E 027°21'0 0.0
2017-Sep-20 21:30N 70°57' E 027°21'0 0.0
2017-Sep-20 21:00N 70°57' E 027°21'0 0.0
2017-Sep-20 20:31N 70°57' E 027°21'0 0.0
2017-Sep-20 20:00N 70°57' E 027°21'0 0.0
2017-Sep-20 19:30N 70°57' E 027°21'0 0.0
2017-Sep-20 19:00N 70°57' E 027°21'0 0.0
2017-Sep-20 18:30N 70°57' E 027°21'0 0.0
2017-Sep-20 18:00N 70°57' E 027°21'0 0.0
2017-Sep-20 17:30N 70°57' E 027°21'0 0.0
2017-Sep-20 17:00N 70°57' E 027°21'0 0.0
2017-Sep-20 16:30N 70°57' E 027°21'1 2.5
2017-Sep-20 16:00N 70°58' E 027°17'4 9.2
2017-Sep-20 15:31N 71°01' E 027°08'5 9.1
2017-Sep-20 15:00N 71°03' E 026°56'7 7.4
2017-Sep-20 14:00N 71°10' E 026°44'3 6.5
2017-Sep-20 13:30N 71°13' E 026°46'3 5.0
2017-Sep-20 13:00N 71°14' E 026°52'3 5.6
2017-Sep-20 12:30N 71°13' E 027°00'4 7.2
2017-Sep-20 12:00N 71°09' E 027°00'3 6.5
2017-Sep-20 11:30N 71°06' E 027°00'4 7.9
2017-Sep-20 11:00N 71°08' E 027°10'5 9.0
2017-Sep-20 10:30N 71°10' E 027°22'510.2
2017-Sep-20 10:00N 71°12' E 027°37'510.1
2017-Sep-20 09:30N 71°14' E 027°52'5 9.8
2017-Sep-20 09:00N 71°16' E 028°06'5 9.8
2017-Sep-20 08:31N 71°17' E 028°20'3 5.9
2017-Sep-20 08:00N 71°18' E 028°29'2 3.2
2017-Sep-20 07:30N 71°16' E 028°29'1 1.4
2017-Sep-20 07:00N 71°16' E 028°30'2 3.9
2017-Sep-20 06:31N 71°14' E 028°30'2 3.8
2017-Sep-20 06:01N 71°12' E 028°30'2 4.2
2017-Sep-20 05:30N 71°10' E 028°31'2 4.0
2017-Sep-20 05:00N 71°08' E 028°31'2 4.7
2017-Sep-20 04:30N 71°06' E 028°37'4 7.8
2017-Sep-20 04:00N 71°04' E 028°45'1 1.7
2017-Sep-20 03:31N 71°05' E 028°46'1 2.1
2017-Sep-20 03:00N 71°06' E 028°46'2 4.2
2017-Sep-20 02:30N 71°08' E 028°46'2 4.0
2017-Sep-20 02:00N 71°10' E 028°47'1 2.6
2017-Sep-20 01:30N 71°11' E 028°47'1 1.2
2017-Sep-20 01:00N 71°12' E 028°46'2 4.8
2017-Sep-20 00:31N 71°14' E 028°46'1 1.6
2017-Sep-20 00:00N 71°14' E 028°49'4 8.9
2017-Sep-19 23:31N 71°11' E 028°60'0 0.8
2017-Sep-19 23:00N 71°11' E 029°01'2 4.0
2017-Sep-19 22:31N 71°09' E 029°01'2 3.8
2017-Sep-19 22:00N 71°07' E 029°00'1 2.1
2017-Sep-19 21:30N 71°06' E 028°60'1 2.2
2017-Sep-19 21:00N 71°05' E 028°60'2 4.4
2017-Sep-19 20:30N 71°07' E 028°55'4 8.1
2017-Sep-19 20:01N 71°10' E 028°47'5 9.0
2017-Sep-19 19:30N 71°14' E 028°39'3 7.0
2017-Sep-19 19:00N 71°17' E 028°34'2 3.6
2017-Sep-19 18:30N 71°18' E 028°30'3 6.6
2017-Sep-19 18:00N 71°15' E 028°30'4 8.0
2017-Sep-19 17:30N 71°11' E 028°30'3 6.2
2017-Sep-19 17:00N 71°08' E 028°32'5 9.2
2017-Sep-19 16:30N 71°04' E 028°42'2 4.7
2017-Sep-19 16:00N 71°06' E 028°45'4 7.3
2017-Sep-19 15:30N 71°10' E 028°45'3 7.1
2017-Sep-19 15:01N 71°13' E 028°45'3 5.4
2017-Sep-19 14:31N 71°13' E 028°53'4 7.2
2017-Sep-19 14:01N 71°10' E 029°00'3 6.4
2017-Sep-19 13:30N 71°07' E 028°60'3 6.1
2017-Sep-19 13:00N 71°04' E 029°01'1 2.0
2017-Sep-19 12:30N 71°03' E 029°01'2 3.6
2017-Sep-19 12:00N 71°01' E 029°01'1 2.4
2017-Sep-19 11:30N 70°60' E 029°01'1 1.2
2017-Sep-19 11:00N 70°59' E 029°01'4 8.7
2017-Sep-19 10:30N 70°59' E 029°15'0 0.3
2017-Sep-19 10:01N 70°59' E 029°14'2 3.5
2017-Sep-19 09:30N 71°01' E 029°15'2 3.3
2017-Sep-19 09:00N 71°03' E 029°14'0 0.7
2017-Sep-19 08:30N 71°03' E 029°15'2 4.6
2017-Sep-19 08:00N 71°05' E 029°14'0 0.1
2017-Sep-19 07:30N 71°05' E 029°14'2 3.4
2017-Sep-19 07:00N 71°07' E 029°15'2 4.0
2017-Sep-19 06:30N 71°09' E 029°14'0 0.5
2017-Sep-19 06:00N 71°09' E 029°15'4 7.7
2017-Sep-19 05:30N 71°08' E 029°26'2 3.9
2017-Sep-19 05:00N 71°06' E 029°30'2 4.2
2017-Sep-19 04:30N 71°04' E 029°30'1 1.1
2017-Sep-19 04:00N 71°04' E 029°32'2 3.2
2017-Sep-19 03:30N 71°02' E 029°31'1 1.1
2017-Sep-19 03:00N 71°02' E 029°32'2 3.7
2017-Sep-19 02:30N 71°00' E 029°31'2 4.0
2017-Sep-19 02:00N 70°58' E 029°30'1 1.4
2017-Sep-19 01:30N 70°57' E 029°31'1 2.7
2017-Sep-19 01:00N 70°56' E 029°31'3 5.3
2017-Sep-19 00:31N 70°54' E 029°30'0 0.3
2017-Sep-19 00:00N 70°54' E 029°30'2 3.7
2017-Sep-18 23:30N 70°54' E 029°24'2 4.6
2017-Sep-18 23:00N 70°54' E 029°17'0 0.5
2017-Sep-18 22:30N 70°54' E 029°18'0 0.7
2017-Sep-18 22:00N 70°54' E 029°18'0 0.8
2017-Sep-18 21:31N 70°53' E 029°20'0 0.8
2017-Sep-18 21:00N 70°53' E 029°21'0 0.8
2017-Sep-18 20:30N 70°53' E 029°22'0 0.8
2017-Sep-18 20:00N 70°53' E 029°23'0 0.9
2017-Sep-18 19:30N 70°53' E 029°24'0 1.0
2017-Sep-18 19:00N 70°53' E 029°26'0 0.8
2017-Sep-18 18:30N 70°53' E 029°27'0 0.6
2017-Sep-18 18:00N 70°53' E 029°28'0 0.6
2017-Sep-18 17:30N 70°53' E 029°29'1 1.0
2017-Sep-18 17:00N 70°53' E 029°27'2 3.6
2017-Sep-18 16:30N 70°55' E 029°23'4 7.3
2017-Sep-18 16:00N 70°57' E 029°16'4 7.3
2017-Sep-18 15:31N 71°00' E 029°09'4 7.5
2017-Sep-18 15:00N 71°03' E 029°01'3 6.3
2017-Sep-18 14:30N 70°60' E 029°00'3 5.8
2017-Sep-18 14:01N 70°59' E 029°08'3 5.7
2017-Sep-18 13:30N 71°01' E 029°15'3 6.7
2017-Sep-18 13:00N 71°04' E 029°15'3 6.4
2017-Sep-18 12:31N 71°07' E 029°15'2 3.7
2017-Sep-18 12:00N 71°08' E 029°20'4 7.8
2017-Sep-18 11:30N 71°06' E 029°30'4 7.3
2017-Sep-18 11:00N 71°02' E 029°30'3 6.2
2017-Sep-18 10:30N 70°59' E 029°30'3 6.4
2017-Sep-18 10:00N 70°56' E 029°30'4 7.3
2017-Sep-18 09:31N 70°52' E 029°32'5 9.1
2017-Sep-18 09:00N 70°49' E 029°41'1 2.2
2017-Sep-18 08:30N 70°48' E 029°44'1 2.6
2017-Sep-18 08:00N 70°50' E 029°44'1 1.2
2017-Sep-18 07:30N 70°50' E 029°44'1 1.0
2017-Sep-18 07:00N 70°51' E 029°44'2 3.0
2017-Sep-18 06:29N 70°52' E 029°44'2 4.0
2017-Sep-18 06:00N 70°54' E 029°44'0 0.5
2017-Sep-18 05:30N 70°54' E 029°44'2 3.6
2017-Sep-18 05:00N 70°56' E 029°44'2 3.8
2017-Sep-18 04:30N 70°58' E 029°45'1 1.7
2017-Sep-18 04:00N 70°59' E 029°46'1 2.2
2017-Sep-18 03:30N 70°60' E 029°46'2 3.7
2017-Sep-18 03:00N 71°02' E 029°45'2 3.2
2017-Sep-18 02:30N 71°02' E 029°50'3 6.9
2017-Sep-18 02:00N 71°02' E 030°01'0 1.0
2017-Sep-18 01:30N 71°02' E 030°02'2 3.6
2017-Sep-18 01:00N 70°60' E 030°01'2 3.1
2017-Sep-18 00:30N 70°58' E 030°01'0 0.6
2017-Sep-18 00:00N 70°58' E 030°01'2 4.0
2017-Sep-17 23:30N 70°56' E 030°01'0 0.4
2017-Sep-17 23:00N 70°56' E 030°01'3 5.6
2017-Sep-17 22:30N 70°53' E 029°59'1 2.9
2017-Sep-17 22:00N 70°52' E 029°59'0 0.2
2017-Sep-17 21:30N 70°52' E 029°59'2 3.9
2017-Sep-17 21:00N 70°50' E 029°59'0 0.1
2017-Sep-17 20:30N 70°50' E 029°59'0 0.3
2017-Sep-17 20:01N 70°50' E 029°59'2 3.3
2017-Sep-17 19:30N 70°48' E 029°59'0 0.4
2017-Sep-17 19:00N 70°48' E 029°59'2 3.3
2017-Sep-17 18:30N 70°49' E 030°04'1 1.1
2017-Sep-17 18:00N 70°48' E 030°03'1 1.1
2017-Sep-17 17:30N 70°48' E 030°02'1 1.0
2017-Sep-17 17:01N 70°48' E 030°01'0 0.8
2017-Sep-17 16:30N 70°47' E 029°60'0 0.8
2017-Sep-17 16:00N 70°47' E 029°59'1 1.8
2017-Sep-17 15:31N 70°48' E 029°58'0 0.5
2017-Sep-17 15:00N 70°48' E 029°59'0 1.0
2017-Sep-17 14:30N 70°48' E 029°57'0 0.6
2017-Sep-17 14:00N 70°48' E 029°58'0 0.4
2017-Sep-17 13:31N 70°48' E 029°59'3 4.9
2017-Sep-17 13:00N 70°47' E 029°51'2 4.9
2017-Sep-17 12:30N 70°48' E 029°45'3 5.5
2017-Sep-17 12:00N 70°51' E 029°44'2 4.0
2017-Sep-17 11:30N 70°53' E 029°44'3 5.8
2017-Sep-17 11:00N 70°56' E 029°44'3 5.6
2017-Sep-17 10:30N 70°59' E 029°45'3 6.4
2017-Sep-17 10:00N 71°02' E 029°45'4 7.8
2017-Sep-17 09:31N 71°02' E 029°56'2 4.7
2017-Sep-17 09:00N 71°00' E 030°00'2 4.9
2017-Sep-17 08:30N 70°58' E 029°60'2 3.4
2017-Sep-17 08:00N 70°56' E 030°00'3 6.7
2017-Sep-17 07:30N 70°53' E 030°00'3 5.6
2017-Sep-17 07:00N 70°50' E 030°01'2 4.8
2017-Sep-17 06:31N 70°48' E 030°00'510.2
2017-Sep-17 06:00N 70°44' E 030°12'510.4
2017-Sep-17 05:30N 70°40' E 030°22'4 8.3
2017-Sep-17 05:00N 70°37' E 030°30'2 4.1
2017-Sep-17 04:30N 70°39' E 030°30'2 3.8
2017-Sep-17 04:00N 70°41' E 030°30'1 1.4
2017-Sep-17 03:30N 70°41' E 030°31'1 2.5
2017-Sep-17 03:00N 70°43' E 030°30'2 4.2
2017-Sep-17 02:30N 70°45' E 030°31'2 3.4
2017-Sep-17 02:00N 70°46' E 030°31'0 0.8
2017-Sep-17 01:30N 70°47' E 030°32'2 4.1
2017-Sep-17 01:00N 70°49' E 030°30'1 1.3
2017-Sep-17 00:30N 70°48' E 030°31'0 0.9
2017-Sep-17 00:00N 70°48' E 030°31'2 3.0
2017-Sep-16 23:30N 70°50' E 030°30'1 1.5
2017-Sep-16 23:00N 70°51' E 030°30'4 8.0
2017-Sep-16 22:31N 70°49' E 030°41'1 2.6
2017-Sep-16 22:01N 70°49' E 030°45'0 0.9
2017-Sep-16 21:30N 70°48' E 030°45'1 2.5
2017-Sep-16 21:00N 70°47' E 030°45'0 0.9
2017-Sep-16 20:30N 70°46' E 030°45'1 1.7
2017-Sep-16 20:00N 70°46' E 030°45'0 0.9
2017-Sep-16 19:30N 70°45' E 030°45'2 3.9
2017-Sep-16 19:00N 70°43' E 030°46'0 0.0
2017-Sep-16 18:30N 70°43' E 030°46'2 4.4
2017-Sep-16 18:00N 70°41' E 030°45'1 2.8
2017-Sep-16 17:30N 70°40' E 030°45'1 1.9
2017-Sep-16 17:00N 70°39' E 030°45'2 3.4
2017-Sep-16 16:30N 70°37' E 030°44'2 4.0
2017-Sep-16 16:00N 70°35' E 030°45'1 1.3
2017-Sep-16 15:30N 70°35' E 030°43'4 9.0
2017-Sep-16 15:00N 70°38' E 030°32'5 8.9
2017-Sep-16 14:30N 70°41' E 030°22'4 8.6
2017-Sep-16 14:01N 70°43' E 030°12'4 7.8
2017-Sep-16 13:30N 70°44' E 029°60'5 9.3
2017-Sep-16 13:00N 70°40' E 029°51'3 6.1
2017-Sep-16 12:30N 70°38' E 029°44'0 0.0
2017-Sep-16 12:00N 70°38' E 029°44'0 0.0
2017-Sep-16 11:30N 70°38' E 029°44'0 0.0
2017-Sep-16 11:01N 70°38' E 029°44'0 0.0
2017-Sep-16 10:31N 70°38' E 029°44'0 0.0
2017-Sep-16 10:00N 70°38' E 029°44'0 0.0
2017-Sep-16 09:31N 70°38' E 029°44'0 0.0
2017-Sep-16 09:00N 70°38' E 029°44'0 0.0
2017-Sep-16 08:30N 70°38' E 029°44'0 0.0
2017-Sep-16 08:00N 70°38' E 029°44'0 0.0
2017-Sep-16 07:30N 70°38' E 029°44'0 0.0
2017-Sep-16 07:00N 70°38' E 029°44'0 0.0
2017-Sep-16 06:31N 70°38' E 029°44'0 0.0
2017-Sep-16 06:00N 70°38' E 029°44'0 0.0
2017-Sep-16 05:30N 70°38' E 029°44'0 0.0
2017-Sep-16 05:00N 70°38' E 029°44'0 0.0
2017-Sep-16 04:31N 70°38' E 029°44'0 0.0
2017-Sep-16 04:01N 70°38' E 029°44'0 0.0
2017-Sep-16 03:31N 70°38' E 029°44'0 0.0
2017-Sep-16 03:00N 70°38' E 029°44'0 0.0
2017-Sep-16 02:30N 70°38' E 029°44'0 0.0
2017-Sep-16 02:00N 70°38' E 029°44'0 0.0
2017-Sep-16 01:30N 70°38' E 029°44'0 0.0
2017-Sep-16 01:00N 70°38' E 029°44'0 0.0
2017-Sep-16 00:31N 70°38' E 029°44'0 0.0
2017-Sep-16 00:00N 70°38' E 029°44'0 0.0
2017-Sep-15 23:30N 70°38' E 029°44'0 0.0
2017-Sep-15 23:00N 70°38' E 029°44'0 0.0
2017-Sep-15 22:31N 70°38' E 029°44'0 0.0
2017-Sep-15 22:00N 70°38' E 029°44'0 0.0
2017-Sep-15 21:30N 70°38' E 029°44'0 0.0
2017-Sep-15 21:00N 70°38' E 029°44'0 0.0
2017-Sep-15 20:31N 70°38' E 029°44'0 0.0
2017-Sep-15 20:01N 70°38' E 029°44'0 0.0
2017-Sep-15 19:29N 70°38' E 029°44'0 0.0
2017-Sep-15 19:00N 70°38' E 029°44'0 0.0
2017-Sep-15 18:30N 70°38' E 029°44'0 0.0
2017-Sep-15 18:01N 70°38' E 029°44'0 0.0
2017-Sep-15 17:30N 70°38' E 029°44'0 0.0
2017-Sep-15 17:01N 70°38' E 029°44'0 0.0
2017-Sep-15 16:30N 70°38' E 029°44'0 0.0
2017-Sep-15 16:01N 70°38' E 029°44'0 0.0
2017-Sep-15 15:30N 70°38' E 029°44'0 0.0
2017-Sep-15 15:00N 70°38' E 029°44'0 0.0
2017-Sep-15 14:31N 70°38' E 029°44'0 0.0
2017-Sep-15 14:01N 70°38' E 029°44'0 0.0
2017-Sep-15 13:30N 70°38' E 029°44'0 0.0
2017-Sep-15 13:00N 70°38' E 029°44'0 0.0
2017-Sep-15 12:30N 70°38' E 029°44'0 0.0
2017-Sep-15 12:00N 70°38' E 029°44'0 0.0
2017-Sep-15 11:31N 70°38' E 029°44'0 0.0
2017-Sep-15 11:00N 70°38' E 029°44'0 0.0
2017-Sep-15 10:30N 70°38' E 029°44'0 0.0
2017-Sep-15 10:00N 70°38' E 029°44'0 0.0
2017-Sep-15 09:30N 70°38' E 029°44'0 0.0
2017-Sep-15 08:59N 70°38' E 029°44'0 0.0
2017-Sep-15 08:30N 70°38' E 029°44'0 0.0
2017-Sep-15 08:00N 70°38' E 029°44'0 0.0
2017-Sep-15 07:31N 70°38' E 029°44'0 0.0
2017-Sep-15 06:59N 70°38' E 029°44'0 0.0
2017-Sep-15 06:30N 70°38' E 029°44'0 0.0
2017-Sep-15 06:01N 70°38' E 029°44'0 0.0
2017-Sep-15 05:30N 70°38' E 029°44'0 0.0
2017-Sep-15 05:01N 70°38' E 029°44'0 0.0
2017-Sep-15 04:30N 70°38' E 029°44'0 0.0
2017-Sep-15 03:59N 70°38' E 029°44'0 0.0
2017-Sep-15 03:30N 70°38' E 029°44'0 0.0
2017-Sep-15 03:00N 70°38' E 029°44'0 0.0
2017-Sep-15 02:30N 70°38' E 029°44'0 0.0
2017-Sep-15 01:59N 70°38' E 029°44'0 0.0
2017-Sep-15 01:31N 70°38' E 029°44'0 0.0
2017-Sep-15 01:01N 70°38' E 029°44'0 0.0
2017-Sep-15 00:30N 70°38' E 029°44'0 0.0
2017-Sep-15 00:00N 70°38' E 029°44'0 0.0
2017-Sep-14 23:30N 70°38' E 029°44'0 0.0
2017-Sep-14 23:00N 70°38' E 029°44'0 0.0
2017-Sep-14 22:30N 70°38' E 029°44'0 0.0
2017-Sep-14 22:00N 70°38' E 029°44'0 0.0
2017-Sep-14 21:30N 70°38' E 029°44'0 0.0
2017-Sep-14 21:00N 70°38' E 029°44'0 0.0
2017-Sep-14 20:30N 70°38' E 029°44'0 0.0
2017-Sep-14 19:59N 70°38' E 029°44'0 0.0
2017-Sep-14 19:30N 70°38' E 029°44'0 0.0
2017-Sep-14 19:01N 70°38' E 029°44'0 0.0
2017-Sep-14 18:30N 70°38' E 029°44'0 0.0
2017-Sep-14 18:00N 70°38' E 029°44'0 0.0
2017-Sep-14 17:30N 70°38' E 029°44'0 0.0
2017-Sep-14 17:01N 70°38' E 029°44'  
Track history (hours):
 
Tides and Currents Weather Stations Pressure Air Temp Water Temp Dewpoint Dewpoint Depression Visibility Wind Speed Wind Dir Waves Ship Positions

Oceanographic research ship Johan Ruud (Norway)

Detailed information on ship capabilities available from University of Delaware's Ocean Information Center.

Last reported at 2017-Sep-24 17:00 UTC. Time now 2017-Sep-24 17:25 UTC.
Position N 69°39' E 018°58'.

Length 30 m; draft 4.5 m.

Type: Fishing. MMSI: 257265000.

Date/timePositionNaut miles runAvg speedWind from/ knotsBaromVisibWave heightAir tempDewpointWater temp
2017-Sep-24 17:00N 69°39' E 018°58'0 0.0
2017-Sep-24 16:30N 69°39' E 018°58'0 0.0
2017-Sep-24 16:00N 69°39' E 018°58'0 0.0
2017-Sep-24 15:30N 69°39' E 018°58'0 0.0
2017-Sep-24 15:00N 69°39' E 018°58'0 0.0
2017-Sep-24 14:30N 69°39' E 018°58'0 0.0
2017-Sep-24 14:00N 69°39' E 018°58'0 0.0
2017-Sep-24 13:30N 69°39' E 018°58'0 0.0
2017-Sep-24 13:00N 69°39' E 018°58'0 0.0
2017-Sep-24 12:30N 69°39' E 018°58'0 0.0
2017-Sep-24 12:00N 69°39' E 018°58'0 0.0
2017-Sep-24 11:30N 69°39' E 018°58'0 0.0
2017-Sep-24 11:00N 69°39' E 018°58'0 0.0
2017-Sep-24 10:30N 69°39' E 018°58'0 0.0
2017-Sep-24 10:00N 69°39' E 018°58'0 0.0
2017-Sep-24 09:30N 69°39' E 018°58'0 0.0
2017-Sep-24 09:00N 69°39' E 018°58'0 0.0
2017-Sep-24 08:30N 69°39' E 018°58'0 0.0
2017-Sep-24 08:01N 69°39' E 018°58'0 0.0
2017-Sep-24 07:30N 69°39' E 018°58'0 0.0
2017-Sep-24 07:00N 69°39' E 018°58'0 0.0
2017-Sep-24 06:30N 69°39' E 018°58'0 0.0
2017-Sep-24 06:00N 69°39' E 018°58'0 0.0
2017-Sep-24 05:30N 69°39' E 018°58'0 0.0
2017-Sep-24 05:00N 69°39' E 018°58'0 0.0
2017-Sep-24 04:30N 69°39' E 018°58'0 0.0
2017-Sep-24 04:00N 69°39' E 018°58'0 0.0
2017-Sep-24 03:30N 69°39' E 018°58'0 0.0
2017-Sep-24 03:00N 69°39' E 018°58'0 0.0
2017-Sep-24 02:30N 69°39' E 018°58'0 0.0
2017-Sep-24 02:00N 69°39' E 018°58'0 0.0
2017-Sep-24 01:30N 69°39' E 018°58'0 0.0
2017-Sep-24 01:00N 69°39' E 018°58'0 0.0
2017-Sep-24 00:30N 69°39' E 018°58'0 0.0
2017-Sep-24 00:00N 69°39' E 018°58'0 0.0
2017-Sep-23 23:30N 69°39' E 018°58'0 0.0
2017-Sep-23 23:00N 69°39' E 018°58'0 0.0
2017-Sep-23 22:30N 69°39' E 018°58'0 0.0
2017-Sep-23 22:00N 69°39' E 018°58'0 0.0
2017-Sep-23 21:30N 69°39' E 018°58'0 0.0
2017-Sep-23 21:00N 69°39' E 018°58'0 0.0
2017-Sep-23 20:30N 69°39' E 018°58'0 0.0
2017-Sep-23 20:00N 69°39' E 018°58'35 0.8
2017-Sep-22 02:01N 69°60' E 020°21'5 9.2
2017-Sep-22 01:30N 70°01' E 020°34'4 9.0
2017-Sep-22 01:00N 70°03' E 020°47'4 8.2
2017-Sep-22 00:30N 70°05' E 020°57'5 9.4
2017-Sep-22 00:01N 70°09' E 021°02'5 9.0
2017-Sep-21 23:30N 70°13' E 021°08'5 9.3
2017-Sep-21 23:00N 70°16' E 021°18'5 9.4
2017-Sep-21 22:30N 70°20' E 021°28'5 9.6
2017-Sep-21 22:00N 70°23' E 021°38'5 9.3
2017-Sep-21 21:30N 70°25' E 021°51'5 9.5
2017-Sep-21 21:00N 70°26' E 022°05'5 9.2
2017-Sep-21 20:30N 70°27' E 022°18'510.0
2017-Sep-21 20:01N 70°29' E 022°32'510.4
2017-Sep-21 19:30N 70°30' E 022°47'5 9.7
2017-Sep-21 19:00N 70°32' E 023°01'5 9.3
2017-Sep-21 18:30N 70°35' E 023°11'5 9.3
2017-Sep-21 18:01N 70°39' E 023°20'5 9.2
2017-Sep-21 17:31N 70°42' E 023°28'5 8.9
2017-Sep-21 17:00N 70°45' E 023°38'4 8.4
2017-Sep-21 16:30N 70°48' E 023°48'5 9.1
2017-Sep-21 16:00N 70°51' E 023°58'4 8.8
2017-Sep-21 15:30N 70°54' E 024°08'4 8.6
2017-Sep-21 15:00N 70°57' E 024°17'4 8.6
2017-Sep-21 14:30N 70°60' E 024°27'4 7.7
2017-Sep-21 14:00N 71°01' E 024°38'4 8.0
2017-Sep-21 13:30N 71°00' E 024°50'4 8.3
2017-Sep-21 13:00N 70°60' E 025°03'4 9.0
2017-Sep-21 12:31N 70°59' E 025°16'4 7.8
2017-Sep-21 12:00N 70°58' E 025°27'3 6.1
2017-Sep-21 11:30N 70°56' E 025°34'5 9.0
2017-Sep-21 11:00N 70°56' E 025°48'4 8.7
2017-Sep-21 10:30N 70°58' E 026°01'4 8.7
2017-Sep-21 10:00N 71°00' E 026°12'4 8.5
2017-Sep-21 09:30N 71°02' E 026°23'4 8.3
2017-Sep-21 09:00N 71°04' E 026°34'4 8.1
2017-Sep-21 08:30N 71°06' E 026°45'0 0.5
2017-Sep-21 08:00N 71°06' E 026°45'2 3.7
2017-Sep-21 07:30N 71°08' E 026°45'2 3.5
2017-Sep-21 07:00N 71°10' E 026°44'2 3.5
2017-Sep-21 06:30N 71°12' E 026°46'1 1.2
2017-Sep-21 06:00N 71°12' E 026°47'2 3.3
2017-Sep-21 05:30N 71°14' E 026°47'1 1.7
2017-Sep-21 05:01N 71°14' E 026°49'4 7.8
2017-Sep-21 04:30N 71°14' E 027°02'1 2.3
2017-Sep-21 04:00N 71°13' E 027°02'1 1.7
2017-Sep-21 03:30N 71°12' E 027°01'2 3.9
2017-Sep-21 03:00N 71°10' E 027°01'2 3.2
2017-Sep-21 02:30N 71°09' E 027°01'1 1.3
2017-Sep-21 02:00N 71°08' E 027°02'2 3.7
2017-Sep-21 01:31N 71°06' E 027°01'2 3.8
2017-Sep-21 01:00N 71°05' E 027°05'5 9.6
2017-Sep-21 00:30N 71°00' E 027°11'4 8.5
2017-Sep-20 23:59N 70°57' E 027°20'0 0.8
2017-Sep-20 23:30N 70°57' E 027°21'0 0.0
2017-Sep-20 23:00N 70°57' E 027°21'0 0.0
2017-Sep-20 22:31N 70°57' E 027°21'0 0.0
2017-Sep-20 22:00N 70°57' E 027°21'0 0.0
2017-Sep-20 21:30N 70°57' E 027°21'0 0.0
2017-Sep-20 21:00N 70°57' E 027°21'0 0.0
2017-Sep-20 20:31N 70°57' E 027°21'0 0.0
2017-Sep-20 20:00N 70°57' E 027°21'0 0.0
2017-Sep-20 19:30N 70°57' E 027°21'0 0.0
2017-Sep-20 19:00N 70°57' E 027°21'0 0.0
2017-Sep-20 18:30N 70°57' E 027°21'0 0.0
2017-Sep-20 18:00N 70°57' E 027°21'0 0.0
2017-Sep-20 17:30N 70°57' E 027°21'0 0.0
2017-Sep-20 17:00N 70°57' E 027°21'0 0.0
2017-Sep-20 16:30N 70°57' E 027°21'1 2.5
2017-Sep-20 16:00N 70°58' E 027°17'4 9.2
2017-Sep-20 15:31N 71°01' E 027°08'5 9.1
2017-Sep-20 15:00N 71°03' E 026°56'7 7.4
2017-Sep-20 14:00N 71°10' E 026°44'3 6.5
2017-Sep-20 13:30N 71°13' E 026°46'3 5.0
2017-Sep-20 13:00N 71°14' E 026°52'3 5.6
2017-Sep-20 12:30N 71°13' E 027°00'4 7.2
2017-Sep-20 12:00N 71°09' E 027°00'3 6.5
2017-Sep-20 11:30N 71°06' E 027°00'4 7.9
2017-Sep-20 11:00N 71°08' E 027°10'5 9.0
2017-Sep-20 10:30N 71°10' E 027°22'510.2
2017-Sep-20 10:00N 71°12' E 027°37'510.1
2017-Sep-20 09:30N 71°14' E 027°52'5 9.8
2017-Sep-20 09:00N 71°16' E 028°06'5 9.8
2017-Sep-20 08:31N 71°17' E 028°20'3 5.9
2017-Sep-20 08:00N 71°18' E 028°29'2 3.2
2017-Sep-20 07:30N 71°16' E 028°29'1 1.4
2017-Sep-20 07:00N 71°16' E 028°30'2 3.9
2017-Sep-20 06:31N 71°14' E 028°30'2 3.8
2017-Sep-20 06:01N 71°12' E 028°30'2 4.2
2017-Sep-20 05:30N 71°10' E 028°31'2 4.0
2017-Sep-20 05:00N 71°08' E 028°31'2 4.7
2017-Sep-20 04:30N 71°06' E 028°37'4 7.8
2017-Sep-20 04:00N 71°04' E 028°45'1 1.7
2017-Sep-20 03:31N 71°05' E 028°46'1 2.1
2017-Sep-20 03:00N 71°06' E 028°46'2 4.2
2017-Sep-20 02:30N 71°08' E 028°46'2 4.0
2017-Sep-20 02:00N 71°10' E 028°47'1 2.6
2017-Sep-20 01:30N 71°11' E 028°47'1 1.2
2017-Sep-20 01:00N 71°12' E 028°46'2 4.8
2017-Sep-20 00:31N 71°14' E 028°46'1 1.6
2017-Sep-20 00:00N 71°14' E 028°49'4 8.9
2017-Sep-19 23:31N 71°11' E 028°60'0 0.8
2017-Sep-19 23:00N 71°11' E 029°01'2 4.0
2017-Sep-19 22:31N 71°09' E 029°01'2 3.8
2017-Sep-19 22:00N 71°07' E 029°00'1 2.1
2017-Sep-19 21:30N 71°06' E 028°60'1 2.2
2017-Sep-19 21:00N 71°05' E 028°60'2 4.4
2017-Sep-19 20:30N 71°07' E 028°55'4 8.1
2017-Sep-19 20:01N 71°10' E 028°47'5 9.0
2017-Sep-19 19:30N 71°14' E 028°39'3 7.0
2017-Sep-19 19:00N 71°17' E 028°34'2 3.6
2017-Sep-19 18:30N 71°18' E 028°30'3 6.6
2017-Sep-19 18:00N 71°15' E 028°30'4 8.0
2017-Sep-19 17:30N 71°11' E 028°30'3 6.2
2017-Sep-19 17:00N 71°08' E 028°32'5 9.2
2017-Sep-19 16:30N 71°04' E 028°42'2 4.7
2017-Sep-19 16:00N 71°06' E 028°45'4 7.3
2017-Sep-19 15:30N 71°10' E 028°45'3 7.1
2017-Sep-19 15:01N 71°13' E 028°45'3 5.4
2017-Sep-19 14:31N 71°13' E 028°53'4 7.2
2017-Sep-19 14:01N 71°10' E 029°00'3 6.4
2017-Sep-19 13:30N 71°07' E 028°60'3 6.1
2017-Sep-19 13:00N 71°04' E 029°01'1 2.0
2017-Sep-19 12:30N 71°03' E 029°01'2 3.6
2017-Sep-19 12:00N 71°01' E 029°01'1 2.4
2017-Sep-19 11:30N 70°60' E 029°01'1 1.2
2017-Sep-19 11:00N 70°59' E 029°01'4 8.7
2017-Sep-19 10:30N 70°59' E 029°15'0 0.3
2017-Sep-19 10:01N 70°59' E 029°14'2 3.5
2017-Sep-19 09:30N 71°01' E 029°15'2 3.3
2017-Sep-19 09:00N 71°03' E 029°14'0 0.7
2017-Sep-19 08:30N 71°03' E 029°15'2 4.6
2017-Sep-19 08:00N 71°05' E 029°14'0 0.1
2017-Sep-19 07:30N 71°05' E 029°14'2 3.4
2017-Sep-19 07:00N 71°07' E 029°15'2 4.0
2017-Sep-19 06:30N 71°09' E 029°14'0 0.5
2017-Sep-19 06:00N 71°09' E 029°15'4 7.7
2017-Sep-19 05:30N 71°08' E 029°26'2 3.9
2017-Sep-19 05:00N 71°06' E 029°30'2 4.2
2017-Sep-19 04:30N 71°04' E 029°30'1 1.1
2017-Sep-19 04:00N 71°04' E 029°32'2 3.2
2017-Sep-19 03:30N 71°02' E 029°31'1 1.1
2017-Sep-19 03:00N 71°02' E 029°32'2 3.7
2017-Sep-19 02:30N 71°00' E 029°31'2 4.0
2017-Sep-19 02:00N 70°58' E 029°30'1 1.4
2017-Sep-19 01:30N 70°57' E 029°31'1 2.7
2017-Sep-19 01:00N 70°56' E 029°31'3 5.3
2017-Sep-19 00:31N 70°54' E 029°30'0 0.3
2017-Sep-19 00:00N 70°54' E 029°30'2 3.7
2017-Sep-18 23:30N 70°54' E 029°24'2 4.6
2017-Sep-18 23:00N 70°54' E 029°17'0 0.5
2017-Sep-18 22:30N 70°54' E 029°18'0 0.7
2017-Sep-18 22:00N 70°54' E 029°18'0 0.8
2017-Sep-18 21:31N 70°53' E 029°20'0 0.8
2017-Sep-18 21:00N 70°53' E 029°21'0 0.8
2017-Sep-18 20:30N 70°53' E 029°22'0 0.8
2017-Sep-18 20:00N 70°53' E 029°23'0 0.9
2017-Sep-18 19:30N 70°53' E 029°24'0 1.0
2017-Sep-18 19:00N 70°53' E 029°26'0 0.8
2017-Sep-18 18:30N 70°53' E 029°27'0 0.6
2017-Sep-18 18:00N 70°53' E 029°28'0 0.6
2017-Sep-18 17:30N 70°53' E 029°29'1 1.0
2017-Sep-18 17:00N 70°53' E 029°27'2 3.6
2017-Sep-18 16:30N 70°55' E 029°23'4 7.3
2017-Sep-18 16:00N 70°57' E 029°16'4 7.3
2017-Sep-18 15:31N 71°00' E 029°09'4 7.5
2017-Sep-18 15:00N 71°03' E 029°01'3 6.3
2017-Sep-18 14:30N 70°60' E 029°00'3 5.8
2017-Sep-18 14:01N 70°59' E 029°08'3 5.7
2017-Sep-18 13:30N 71°01' E 029°15'3 6.7
2017-Sep-18 13:00N 71°04' E 029°15'3 6.4
2017-Sep-18 12:31N 71°07' E 029°15'2 3.7
2017-Sep-18 12:00N 71°08' E 029°20'4 7.8
2017-Sep-18 11:30N 71°06' E 029°30'4 7.3
2017-Sep-18 11:00N 71°02' E 029°30'3 6.2
2017-Sep-18 10:30N 70°59' E 029°30'3 6.4
2017-Sep-18 10:00N 70°56' E 029°30'4 7.3
2017-Sep-18 09:31N 70°52' E 029°32'5 9.1
2017-Sep-18 09:00N 70°49' E 029°41'1 2.2
2017-Sep-18 08:30N 70°48' E 029°44'1 2.6
2017-Sep-18 08:00N 70°50' E 029°44'1 1.2
2017-Sep-18 07:30N 70°50' E 029°44'1 1.0
2017-Sep-18 07:00N 70°51' E 029°44'2 3.0
2017-Sep-18 06:29N 70°52' E 029°44'2 4.0
2017-Sep-18 06:00N 70°54' E 029°44'0 0.5
2017-Sep-18 05:30N 70°54' E 029°44'2 3.6
2017-Sep-18 05:00N 70°56' E 029°44'2 3.8
2017-Sep-18 04:30N 70°58' E 029°45'1 1.7
2017-Sep-18 04:00N 70°59' E 029°46'1 2.2
2017-Sep-18 03:30N 70°60' E 029°46'2 3.7
2017-Sep-18 03:00N 71°02' E 029°45'2 3.2
2017-Sep-18 02:30N 71°02' E 029°50'3 6.9
2017-Sep-18 02:00N 71°02' E 030°01'0 1.0
2017-Sep-18 01:30N 71°02' E 030°02'2 3.6
2017-Sep-18 01:00N 70°60' E 030°01'2 3.1
2017-Sep-18 00:30N 70°58' E 030°01'0 0.6
2017-Sep-18 00:00N 70°58' E 030°01'2 4.0
2017-Sep-17 23:30N 70°56' E 030°01'0 0.4
2017-Sep-17 23:00N 70°56' E 030°01'3 5.6
2017-Sep-17 22:30N 70°53' E 029°59'1 2.9
2017-Sep-17 22:00N 70°52' E 029°59'0 0.2
2017-Sep-17 21:30N 70°52' E 029°59'2 3.9
2017-Sep-17 21:00N 70°50' E 029°59'0 0.1
2017-Sep-17 20:30N 70°50' E 029°59'0 0.3
2017-Sep-17 20:01N 70°50' E 029°59'2 3.3
2017-Sep-17 19:30N 70°48' E 029°59'0 0.4
2017-Sep-17 19:00N 70°48' E 029°59'2 3.3
2017-Sep-17 18:30N 70°49' E 030°04'1 1.1
2017-Sep-17 18:00N 70°48' E 030°03'1 1.1
2017-Sep-17 17:30N 70°48' E 030°02'1 1.0
2017-Sep-17 17:01N 70°48' E 030°01'0 0.8
2017-Sep-17 16:30N 70°47' E 029°60'0 0.8
2017-Sep-17 16:00N 70°47' E 029°59'1 1.8
2017-Sep-17 15:31N 70°48' E 029°58'0 0.5
2017-Sep-17 15:00N 70°48' E 029°59'0 1.0
2017-Sep-17 14:30N 70°48' E 029°57'0 0.6
2017-Sep-17 14:00N 70°48' E 029°58'0 0.4
2017-Sep-17 13:31N 70°48' E 029°59'3 4.9
2017-Sep-17 13:00N 70°47' E 029°51'2 4.9
2017-Sep-17 12:30N 70°48' E 029°45'3 5.5
2017-Sep-17 12:00N 70°51' E 029°44'2 4.0
2017-Sep-17 11:30N 70°53' E 029°44'3 5.8
2017-Sep-17 11:00N 70°56' E 029°44'3 5.6
2017-Sep-17 10:30N 70°59' E 029°45'3 6.4
2017-Sep-17 10:00N 71°02' E 029°45'4 7.8
2017-Sep-17 09:31N 71°02' E 029°56'2 4.7
2017-Sep-17 09:00N 71°00' E 030°00'2 4.9
2017-Sep-17 08:30N 70°58' E 029°60'2 3.4
2017-Sep-17 08:00N 70°56' E 030°00'3 6.7
2017-Sep-17 07:30N 70°53' E 030°00'3 5.6
2017-Sep-17 07:00N 70°50' E 030°01'2 4.8
2017-Sep-17 06:31N 70°48' E 030°00'510.2
2017-Sep-17 06:00N 70°44' E 030°12'510.4
2017-Sep-17 05:30N 70°40' E 030°22'4 8.3
2017-Sep-17 05:00N 70°37' E 030°30'2 4.1
2017-Sep-17 04:30N 70°39' E 030°30'2 3.8
2017-Sep-17 04:00N 70°41' E 030°30'1 1.4
2017-Sep-17 03:30N 70°41' E 030°31'1 2.5
2017-Sep-17 03:00N 70°43' E 030°30'2 4.2
2017-Sep-17 02:30N 70°45' E 030°31'2 3.4
2017-Sep-17 02:00N 70°46' E 030°31'0 0.8
2017-Sep-17 01:30N 70°47' E 030°32'2 4.1
2017-Sep-17 01:00N 70°49' E 030°30'1 1.3
2017-Sep-17 00:30N 70°48' E 030°31'0 0.9
2017-Sep-17 00:00N 70°48' E 030°31'2 3.0
2017-Sep-16 23:30N 70°50' E 030°30'1 1.5
2017-Sep-16 23:00N 70°51' E 030°30'4 8.0
2017-Sep-16 22:31N 70°49' E 030°41'1 2.6
2017-Sep-16 22:01N 70°49' E 030°45'0 0.9
2017-Sep-16 21:30N 70°48' E 030°45'1 2.5
2017-Sep-16 21:00N 70°47' E 030°45'0 0.9
2017-Sep-16 20:30N 70°46' E 030°45'1 1.7
2017-Sep-16 20:00N 70°46' E 030°45'0 0.9
2017-Sep-16 19:30N 70°45' E 030°45'2 3.9
2017-Sep-16 19:00N 70°43' E 030°46'0 0.0
2017-Sep-16 18:30N 70°43' E 030°46'2 4.4
2017-Sep-16 18:00N 70°41' E 030°45'1 2.8
2017-Sep-16 17:30N 70°40' E 030°45'1 1.9
2017-Sep-16 17:00N 70°39' E 030°45'2 3.4
2017-Sep-16 16:30N 70°37' E 030°44'2 4.0
2017-Sep-16 16:00N 70°35' E 030°45'1 1.3
2017-Sep-16 15:30N 70°35' E 030°43'4 9.0
2017-Sep-16 15:00N 70°38' E 030°32'5 8.9
2017-Sep-16 14:30N 70°41' E 030°22'4 8.6
2017-Sep-16 14:01N 70°43' E 030°12'4 7.8
2017-Sep-16 13:30N 70°44' E 029°60'5 9.3
2017-Sep-16 13:00N 70°40' E 029°51'3 6.1
2017-Sep-16 12:30N 70°38' E 029°44'0 0.0
2017-Sep-16 12:00N 70°38' E 029°44'0 0.0
2017-Sep-16 11:30N 70°38' E 029°44'0 0.0
2017-Sep-16 11:01N 70°38' E 029°44'0 0.0
2017-Sep-16 10:31N 70°38' E 029°44'0 0.0
2017-Sep-16 10:00N 70°38' E 029°44'0 0.0
2017-Sep-16 09:31N 70°38' E 029°44'0 0.0
2017-Sep-16 09:00N 70°38' E 029°44'0 0.0
2017-Sep-16 08:30N 70°38' E 029°44'0 0.0
2017-Sep-16 08:00N 70°38' E 029°44'0 0.0
2017-Sep-16 07:30N 70°38' E 029°44'0 0.0
2017-Sep-16 07:00N 70°38' E 029°44'0 0.0
2017-Sep-16 06:31N 70°38' E 029°44'0 0.0
2017-Sep-16 06:00N 70°38' E 029°44'0 0.0
2017-Sep-16 05:30N 70°38' E 029°44'0 0.0
2017-Sep-16 05:00N 70°38' E 029°44'0 0.0
2017-Sep-16 04:31N 70°38' E 029°44'0 0.0
2017-Sep-16 04:01N 70°38' E 029°44'0 0.0
2017-Sep-16 03:31N 70°38' E 029°44'0 0.0
2017-Sep-16 03:00N 70°38' E 029°44'0 0.0
2017-Sep-16 02:30N 70°38' E 029°44'0 0.0
2017-Sep-16 02:00N 70°38' E 029°44'0 0.0
2017-Sep-16 01:30N 70°38' E 029°44'0 0.0
2017-Sep-16 01:00N 70°38' E 029°44'0 0.0
2017-Sep-16 00:31N 70°38' E 029°44'0 0.0
2017-Sep-16 00:00N 70°38' E 029°44'0 0.0
2017-Sep-15 23:30N 70°38' E 029°44'0 0.0
2017-Sep-15 23:00N 70°38' E 029°44'0 0.0
2017-Sep-15 22:31N 70°38' E 029°44'0 0.0
2017-Sep-15 22:00N 70°38' E 029°44'0 0.0
2017-Sep-15 21:30N 70°38' E 029°44'0 0.0
2017-Sep-15 21:00N 70°38' E 029°44'0 0.0
2017-Sep-15 20:31N 70°38' E 029°44'0 0.0
2017-Sep-15 20:01N 70°38' E 029°44'0 0.0
2017-Sep-15 19:29N 70°38' E 029°44'0 0.0
2017-Sep-15 19:00N 70°38' E 029°44'0 0.0
2017-Sep-15 18:30N 70°38' E 029°44'0 0.0
2017-Sep-15 18:01N 70°38' E 029°44'0 0.0
2017-Sep-15 17:30N 70°38' E 029°44'0 0.0
2017-Sep-15 17:01N 70°38' E 029°44'0 0.0
2017-Sep-15 16:30N 70°38' E 029°44'0 0.0
2017-Sep-15 16:01N 70°38' E 029°44'0 0.0
2017-Sep-15 15:30N 70°38' E 029°44'0 0.0
2017-Sep-15 15:00N 70°38' E 029°44'0 0.0
2017-Sep-15 14:31N 70°38' E 029°44'0 0.0
2017-Sep-15 14:01N 70°38' E 029°44'0 0.0
2017-Sep-15 13:30N 70°38' E 029°44'0 0.0
2017-Sep-15 13:00N 70°38' E 029°44'0 0.0
2017-Sep-15 12:30N 70°38' E 029°44'0 0.0
2017-Sep-15 12:00N 70°38' E 029°44'0 0.0
2017-Sep-15 11:31N 70°38' E 029°44'0 0.0
2017-Sep-15 11:00N 70°38' E 029°44'0 0.0
2017-Sep-15 10:30N 70°38' E 029°44'0 0.0
2017-Sep-15 10:00N 70°38' E 029°44'0 0.0
2017-Sep-15 09:30N 70°38' E 029°44'0 0.0
2017-Sep-15 08:59N 70°38' E 029°44'0 0.0
2017-Sep-15 08:30N 70°38' E 029°44'0 0.0
2017-Sep-15 08:00N 70°38' E 029°44'0 0.0
2017-Sep-15 07:31N 70°38' E 029°44'0 0.0
2017-Sep-15 06:59N 70°38' E 029°44'0 0.0
2017-Sep-15 06:30N 70°38' E 029°44'0 0.0
2017-Sep-15 06:01N 70°38' E 029°44'0 0.0
2017-Sep-15 05:30N 70°38' E 029°44'0 0.0
2017-Sep-15 05:01N 70°38' E 029°44'0 0.0
2017-Sep-15 04:30N 70°38' E 029°44'0 0.0
2017-Sep-15 03:59N 70°38' E 029°44'0 0.0
2017-Sep-15 03:30N 70°38' E 029°44'0 0.0
2017-Sep-15 03:00N 70°38' E 029°44'0 0.0
2017-Sep-15 02:30N 70°38' E 029°44'0 0.0
2017-Sep-15 01:59N 70°38' E 029°44'0 0.0
2017-Sep-15 01:31N 70°38' E 029°44'0 0.0
2017-Sep-15 01:01N 70°38' E 029°44'0 0.0
2017-Sep-15 00:30N 70°38' E 029°44'0 0.0
2017-Sep-15 00:00N 70°38' E 029°44'0 0.0
2017-Sep-14 23:30N 70°38' E 029°44'0 0.0
2017-Sep-14 23:00N 70°38' E 029°44'0 0.0
2017-Sep-14 22:30N 70°38' E 029°44'0 0.0
2017-Sep-14 22:00N 70°38' E 029°44'0 0.0
2017-Sep-14 21:30N 70°38' E 029°44'0 0.0
2017-Sep-14 21:00N 70°38' E 029°44'0 0.0
2017-Sep-14 20:30N 70°38' E 029°44'0 0.0
2017-Sep-14 19:59N 70°38' E 029°44'0 0.0
2017-Sep-14 19:30N 70°38' E 029°44'0 0.0
2017-Sep-14 19:01N 70°38' E 029°44'0 0.0
2017-Sep-14 18:30N 70°38' E 029°44'0 0.0
2017-Sep-14 18:00N 70°38' E 029°44'0 0.0
2017-Sep-14 17:30N 70°38' E 029°44'0 0.0
2017-Sep-14 17:01N 70°38' E 029°44'  

Dump ship's entire track history